sensor_id;sensor_type;location;lat;lon;timestamp;P1;durP1;ratioP1;P2;durP2;ratioP2
77332;SDS011;66408;51.326;12.070;2023-06-22T00:00:50;11.63;;;8.20;;
77332;SDS011;66408;51.326;12.070;2023-06-22T00:03:18;11.45;;;8.27;;
77332;SDS011;66408;51.326;12.070;2023-06-22T00:05:45;13.30;;;8.27;;
77332;SDS011;66408;51.326;12.070;2023-06-22T00:08:15;12.40;;;8.02;;
77332;SDS011;66408;51.326;12.070;2023-06-22T00:10:42;13.27;;;8.40;;
77332;SDS011;66408;51.326;12.070;2023-06-22T00:13:10;12.82;;;9.13;;
77332;SDS011;66408;51.326;12.070;2023-06-22T00:15:37;14.65;;;9.80;;
77332;SDS011;66408;51.326;12.070;2023-06-22T00:18:06;10.85;;;8.35;;
77332;SDS011;66408;51.326;12.070;2023-06-22T00:20:33;11.40;;;7.93;;
77332;SDS011;66408;51.326;12.070;2023-06-22T00:23:03;11.80;;;8.63;;
77332;SDS011;66408;51.326;12.070;2023-06-22T00:25:35;12.55;;;8.57;;
77332;SDS011;66408;51.326;12.070;2023-06-22T00:28:03;12.90;;;8.18;;
77332;SDS011;66408;51.326;12.070;2023-06-22T00:30:30;11.95;;;8.50;;
77332;SDS011;66408;51.326;12.070;2023-06-22T00:32:57;11.88;;;8.73;;
77332;SDS011;66408;51.326;12.070;2023-06-22T00:35:25;10.60;;;7.90;;
77332;SDS011;66408;51.326;12.070;2023-06-22T00:37:56;12.38;;;8.38;;
77332;SDS011;66408;51.326;12.070;2023-06-22T00:40:31;11.90;;;8.60;;
77332;SDS011;66408;51.326;12.070;2023-06-22T00:42:59;12.30;;;8.38;;
77332;SDS011;66408;51.326;12.070;2023-06-22T00:45:26;11.55;;;7.90;;
77332;SDS011;66408;51.326;12.070;2023-06-22T00:47:53;13.75;;;7.72;;
77332;SDS011;66408;51.326;12.070;2023-06-22T00:50:23;12.13;;;8.50;;
77332;SDS011;66408;51.326;12.070;2023-06-22T00:52:53;14.07;;;8.73;;
77332;SDS011;66408;51.326;12.070;2023-06-22T00:55:25;11.77;;;8.25;;
77332;SDS011;66408;51.326;12.070;2023-06-22T00:57:52;13.65;;;8.68;;
77332;SDS011;66408;51.326;12.070;2023-06-22T01:00:23;11.65;;;8.27;;
77332;SDS011;66408;51.326;12.070;2023-06-22T01:02:51;11.27;;;8.00;;
77332;SDS011;66408;51.326;12.070;2023-06-22T01:05:20;13.00;;;7.70;;
77332;SDS011;66408;51.326;12.070;2023-06-22T01:13:02;11.57;;;7.90;;
77332;SDS011;66408;51.326;12.070;2023-06-22T01:15:34;11.45;;;7.72;;
77332;SDS011;66408;51.326;12.070;2023-06-22T01:18:06;11.23;;;8.10;;
77332;SDS011;66408;51.326;12.070;2023-06-22T01:20:35;12.07;;;7.80;;
77332;SDS011;66408;51.326;12.070;2023-06-22T01:25:47;10.00;;;7.50;;
77332;SDS011;66408;51.326;12.070;2023-06-22T01:31:10;11.02;;;7.28;;
77332;SDS011;66408;51.326;12.070;2023-06-22T01:33:39;11.82;;;7.78;;
77332;SDS011;66408;51.326;12.070;2023-06-22T01:36:09;11.57;;;8.40;;
77332;SDS011;66408;51.326;12.070;2023-06-22T01:38:36;11.23;;;7.70;;
77332;SDS011;66408;51.326;12.070;2023-06-22T01:41:04;13.48;;;8.38;;
77332;SDS011;66408;51.326;12.070;2023-06-22T01:43:32;13.43;;;9.32;;
77332;SDS011;66408;51.326;12.070;2023-06-22T01:46:00;13.43;;;9.25;;
77332;SDS011;66408;51.326;12.070;2023-06-22T01:51:21;16.77;;;10.60;;
77332;SDS011;66408;51.326;12.070;2023-06-22T01:53:48;14.18;;;10.07;;
77332;SDS011;66408;51.326;12.070;2023-06-22T01:56:18;16.77;;;10.70;;
77332;SDS011;66408;51.326;12.070;2023-06-22T01:58:54;13.90;;;9.48;;
77332;SDS011;66408;51.326;12.070;2023-06-22T02:01:31;16.95;;;10.45;;
77332;SDS011;66408;51.326;12.070;2023-06-22T02:04:06;19.08;;;9.63;;
77332;SDS011;66408;51.326;12.070;2023-06-22T02:06:38;16.30;;;9.60;;
77332;SDS011;66408;51.326;12.070;2023-06-22T02:09:17;13.57;;;9.25;;
77332;SDS011;66408;51.326;12.070;2023-06-22T02:11:48;13.65;;;8.80;;
77332;SDS011;66408;51.326;12.070;2023-06-22T02:14:21;14.18;;;9.15;;
77332;SDS011;66408;51.326;12.070;2023-06-22T02:16:48;17.98;;;9.27;;
77332;SDS011;66408;51.326;12.070;2023-06-22T02:19:17;16.92;;;9.80;;
77332;SDS011;66408;51.326;12.070;2023-06-22T02:21:49;14.45;;;9.75;;
77332;SDS011;66408;51.326;12.070;2023-06-22T02:24:15;23.80;;;10.65;;
77332;SDS011;66408;51.326;12.070;2023-06-22T02:26:42;17.05;;;9.65;;
77332;SDS011;66408;51.326;12.070;2023-06-22T02:29:11;16.60;;;9.50;;
77332;SDS011;66408;51.326;12.070;2023-06-22T02:31:38;16.33;;;9.93;;
77332;SDS011;66408;51.326;12.070;2023-06-22T02:34:04;18.55;;;9.30;;
77332;SDS011;66408;51.326;12.070;2023-06-22T02:36:31;15.60;;;10.40;;
77332;SDS011;66408;51.326;12.070;2023-06-22T02:38:59;12.40;;;8.65;;
77332;SDS011;66408;51.326;12.070;2023-06-22T02:41:27;16.45;;;9.73;;
77332;SDS011;66408;51.326;12.070;2023-06-22T02:43:53;16.55;;;10.23;;
77332;SDS011;66408;51.326;12.070;2023-06-22T02:46:20;13.55;;;9.68;;
77332;SDS011;66408;51.326;12.070;2023-06-22T02:48:47;13.90;;;9.82;;
77332;SDS011;66408;51.326;12.070;2023-06-22T02:51:14;18.73;;;10.30;;
77332;SDS011;66408;51.326;12.070;2023-06-22T02:53:41;21.00;;;10.07;;
77332;SDS011;66408;51.326;12.070;2023-06-22T02:56:10;18.15;;;10.13;;
77332;SDS011;66408;51.326;12.070;2023-06-22T02:58:38;15.15;;;10.10;;
77332;SDS011;66408;51.326;12.070;2023-06-22T03:01:05;15.52;;;9.10;;
77332;SDS011;66408;51.326;12.070;2023-06-22T03:03:32;16.70;;;10.43;;
77332;SDS011;66408;51.326;12.070;2023-06-22T03:05:59;16.35;;;9.77;;
77332;SDS011;66408;51.326;12.070;2023-06-22T03:10:55;15.38;;;10.02;;
77332;SDS011;66408;51.326;12.070;2023-06-22T03:13:22;14.18;;;9.13;;
77332;SDS011;66408;51.326;12.070;2023-06-22T03:15:49;15.90;;;8.80;;
77332;SDS011;66408;51.326;12.070;2023-06-22T03:18:15;17.35;;;9.45;;
77332;SDS011;66408;51.326;12.070;2023-06-22T03:20:42;15.68;;;9.95;;
77332;SDS011;66408;51.326;12.070;2023-06-22T03:23:08;17.15;;;9.77;;
77332;SDS011;66408;51.326;12.070;2023-06-22T03:25:35;17.17;;;10.50;;
77332;SDS011;66408;51.326;12.070;2023-06-22T03:28:01;17.52;;;11.05;;
77332;SDS011;66408;51.326;12.070;2023-06-22T03:30:40;17.25;;;12.30;;
77332;SDS011;66408;51.326;12.070;2023-06-22T03:33:07;19.17;;;10.88;;
77332;SDS011;66408;51.326;12.070;2023-06-22T03:35:33;17.30;;;10.57;;
77332;SDS011;66408;51.326;12.070;2023-06-22T03:38:00;22.88;;;10.70;;
77332;SDS011;66408;51.326;12.070;2023-06-22T03:40:26;17.33;;;10.93;;
77332;SDS011;66408;51.326;12.070;2023-06-22T03:42:53;16.08;;;10.43;;
77332;SDS011;66408;51.326;12.070;2023-06-22T03:45:20;17.08;;;11.45;;
77332;SDS011;66408;51.326;12.070;2023-06-22T03:47:46;25.70;;;10.82;;
77332;SDS011;66408;51.326;12.070;2023-06-22T03:50:13;17.48;;;10.85;;
77332;SDS011;66408;51.326;12.070;2023-06-22T03:52:40;17.42;;;10.10;;
77332;SDS011;66408;51.326;12.070;2023-06-22T03:55:07;20.02;;;10.05;;
77332;SDS011;66408;51.326;12.070;2023-06-22T03:57:34;21.38;;;10.43;;
77332;SDS011;66408;51.326;12.070;2023-06-22T04:00:00;16.38;;;10.77;;
77332;SDS011;66408;51.326;12.070;2023-06-22T04:02:27;20.35;;;10.35;;
77332;SDS011;66408;51.326;12.070;2023-06-22T04:04:54;21.05;;;10.85;;
77332;SDS011;66408;51.326;12.070;2023-06-22T04:07:20;19.73;;;10.52;;
77332;SDS011;66408;51.326;12.070;2023-06-22T04:09:47;19.52;;;10.45;;
77332;SDS011;66408;51.326;12.070;2023-06-22T04:12:14;22.05;;;11.13;;
77332;SDS011;66408;51.326;12.070;2023-06-22T04:14:43;20.73;;;11.35;;
77332;SDS011;66408;51.326;12.070;2023-06-22T04:17:09;19.88;;;10.88;;
77332;SDS011;66408;51.326;12.070;2023-06-22T04:19:36;20.83;;;11.57;;
77332;SDS011;66408;51.326;12.070;2023-06-22T04:22:02;19.40;;;10.52;;
77332;SDS011;66408;51.326;12.070;2023-06-22T04:24:29;20.70;;;11.40;;
77332;SDS011;66408;51.326;12.070;2023-06-22T04:26:56;18.63;;;10.48;;
77332;SDS011;66408;51.326;12.070;2023-06-22T04:29:22;20.42;;;10.82;;
77332;SDS011;66408;51.326;12.070;2023-06-22T04:31:58;22.17;;;11.00;;
77332;SDS011;66408;51.326;12.070;2023-06-22T04:34:29;22.02;;;11.45;;
77332;SDS011;66408;51.326;12.070;2023-06-22T04:36:55;15.60;;;10.55;;
77332;SDS011;66408;51.326;12.070;2023-06-22T04:39:22;18.65;;;9.50;;
77332;SDS011;66408;51.326;12.070;2023-06-22T04:41:50;20.77;;;10.60;;
77332;SDS011;66408;51.326;12.070;2023-06-22T04:44:18;17.05;;;10.70;;
77332;SDS011;66408;51.326;12.070;2023-06-22T04:46:52;22.00;;;11.73;;
77332;SDS011;66408;51.326;12.070;2023-06-22T04:49:35;19.25;;;10.95;;
77332;SDS011;66408;51.326;12.070;2023-06-22T04:52:07;18.08;;;11.43;;
77332;SDS011;66408;51.326;12.070;2023-06-22T04:54:36;17.50;;;10.90;;
77332;SDS011;66408;51.326;12.070;2023-06-22T04:57:04;19.33;;;11.68;;
77332;SDS011;66408;51.326;12.070;2023-06-22T04:59:36;20.33;;;11.45;;
77332;SDS011;66408;51.326;12.070;2023-06-22T05:02:05;18.40;;;12.90;;
77332;SDS011;66408;51.326;12.070;2023-06-22T05:04:32;16.45;;;11.20;;
77332;SDS011;66408;51.326;12.070;2023-06-22T05:07:01;16.35;;;11.30;;
77332;SDS011;66408;51.326;12.070;2023-06-22T05:09:29;20.85;;;12.48;;
77332;SDS011;66408;51.326;12.070;2023-06-22T05:11:55;15.98;;;11.45;;
77332;SDS011;66408;51.326;12.070;2023-06-22T05:14:26;15.52;;;11.30;;
77332;SDS011;66408;51.326;12.070;2023-06-22T05:16:52;15.45;;;11.25;;
77332;SDS011;66408;51.326;12.070;2023-06-22T05:19:19;16.45;;;11.65;;
77332;SDS011;66408;51.326;12.070;2023-06-22T05:21:45;19.13;;;11.02;;
77332;SDS011;66408;51.326;12.070;2023-06-22T05:24:12;16.48;;;11.43;;
77332;SDS011;66408;51.326;12.070;2023-06-22T05:26:38;18.02;;;10.88;;
77332;SDS011;66408;51.326;12.070;2023-06-22T05:29:05;19.80;;;11.25;;
77332;SDS011;66408;51.326;12.070;2023-06-22T05:31:33;15.73;;;10.23;;
77332;SDS011;66408;51.326;12.070;2023-06-22T05:34:00;19.63;;;11.23;;
77332;SDS011;66408;51.326;12.070;2023-06-22T05:36:27;18.30;;;11.32;;
77332;SDS011;66408;51.326;12.070;2023-06-22T05:38:53;15.02;;;10.95;;
77332;SDS011;66408;51.326;12.070;2023-06-22T05:41:22;19.60;;;11.43;;
77332;SDS011;66408;51.326;12.070;2023-06-22T05:43:49;17.60;;;11.75;;
77332;SDS011;66408;51.326;12.070;2023-06-22T05:46:16;15.90;;;11.05;;
77332;SDS011;66408;51.326;12.070;2023-06-22T05:48:43;16.30;;;11.70;;
77332;SDS011;66408;51.326;12.070;2023-06-22T05:51:13;22.15;;;11.63;;
77332;SDS011;66408;51.326;12.070;2023-06-22T05:53:39;19.17;;;11.60;;
77332;SDS011;66408;51.326;12.070;2023-06-22T05:56:06;15.88;;;11.80;;
77332;SDS011;66408;51.326;12.070;2023-06-22T05:58:32;17.52;;;10.70;;
77332;SDS011;66408;51.326;12.070;2023-06-22T06:00:59;18.05;;;11.63;;
77332;SDS011;66408;51.326;12.070;2023-06-22T06:03:26;15.30;;;10.88;;
77332;SDS011;66408;51.326;12.070;2023-06-22T06:05:55;16.23;;;10.13;;
77332;SDS011;66408;51.326;12.070;2023-06-22T06:08:21;13.52;;;9.55;;
77332;SDS011;66408;51.326;12.070;2023-06-22T06:10:48;15.32;;;9.95;;
77332;SDS011;66408;51.326;12.070;2023-06-22T06:13:15;13.70;;;9.82;;
77332;SDS011;66408;51.326;12.070;2023-06-22T06:15:41;12.32;;;9.35;;
77332;SDS011;66408;51.326;12.070;2023-06-22T06:18:08;15.52;;;10.35;;
77332;SDS011;66408;51.326;12.070;2023-06-22T06:20:34;12.45;;;9.77;;
77332;SDS011;66408;51.326;12.070;2023-06-22T06:23:01;15.32;;;9.73;;
77332;SDS011;66408;51.326;12.070;2023-06-22T06:25:28;13.77;;;8.85;;
77332;SDS011;66408;51.326;12.070;2023-06-22T06:27:54;14.00;;;9.77;;
77332;SDS011;66408;51.326;12.070;2023-06-22T06:30:21;13.20;;;8.90;;
77332;SDS011;66408;51.326;12.070;2023-06-22T06:32:49;12.70;;;9.13;;
77332;SDS011;66408;51.326;12.070;2023-06-22T06:35:16;12.10;;;8.77;;
77332;SDS011;66408;51.326;12.070;2023-06-22T06:37:44;15.35;;;9.60;;
77332;SDS011;66408;51.326;12.070;2023-06-22T06:40:12;14.43;;;8.82;;
77332;SDS011;66408;51.326;12.070;2023-06-22T06:42:47;16.02;;;10.05;;
77332;SDS011;66408;51.326;12.070;2023-06-22T06:45:15;13.35;;;8.93;;
77332;SDS011;66408;51.326;12.070;2023-06-22T06:47:45;10.75;;;8.20;;
77332;SDS011;66408;51.326;12.070;2023-06-22T06:50:12;12.75;;;8.88;;
77332;SDS011;66408;51.326;12.070;2023-06-22T06:52:39;11.68;;;8.27;;
77332;SDS011;66408;51.326;12.070;2023-06-22T06:55:06;11.63;;;8.70;;
77332;SDS011;66408;51.326;12.070;2023-06-22T07:00:01;12.90;;;8.70;;
77332;SDS011;66408;51.326;12.070;2023-06-22T07:02:28;10.82;;;8.65;;
77332;SDS011;66408;51.326;12.070;2023-06-22T07:04:55;11.90;;;8.68;;
77332;SDS011;66408;51.326;12.070;2023-06-22T07:07:22;10.07;;;8.10;;
77332;SDS011;66408;51.326;12.070;2023-06-22T07:09:48;9.95;;;8.68;;
77332;SDS011;66408;51.326;12.070;2023-06-22T07:12:15;10.15;;;8.57;;
77332;SDS011;66408;51.326;12.070;2023-06-22T07:14:41;10.95;;;8.63;;
77332;SDS011;66408;51.326;12.070;2023-06-22T07:17:08;12.10;;;8.75;;
77332;SDS011;66408;51.326;12.070;2023-06-22T07:19:34;11.73;;;7.72;;
77332;SDS011;66408;51.326;12.070;2023-06-22T07:22:01;9.30;;;7.68;;
77332;SDS011;66408;51.326;12.070;2023-06-22T07:24:28;9.88;;;7.68;;
77332;SDS011;66408;51.326;12.070;2023-06-22T07:26:54;10.25;;;7.45;;
77332;SDS011;66408;51.326;12.070;2023-06-22T07:29:21;10.25;;;7.80;;
77332;SDS011;66408;51.326;12.070;2023-06-22T07:31:48;14.40;;;9.73;;
77332;SDS011;66408;51.326;12.070;2023-06-22T07:34:17;10.40;;;8.35;;
77332;SDS011;66408;51.326;12.070;2023-06-22T07:36:44;13.15;;;8.68;;
77332;SDS011;66408;51.326;12.070;2023-06-22T07:39:12;11.55;;;8.55;;
77332;SDS011;66408;51.326;12.070;2023-06-22T07:41:39;9.52;;;8.48;;
77332;SDS011;66408;51.326;12.070;2023-06-22T07:44:06;10.20;;;7.93;;
77332;SDS011;66408;51.326;12.070;2023-06-22T07:46:33;11.38;;;8.52;;
77332;SDS011;66408;51.326;12.070;2023-06-22T07:49:00;10.93;;;8.50;;
77332;SDS011;66408;51.326;12.070;2023-06-22T07:51:27;10.98;;;8.30;;
77332;SDS011;66408;51.326;12.070;2023-06-22T07:53:54;12.25;;;7.97;;
77332;SDS011;66408;51.326;12.070;2023-06-22T07:56:20;9.25;;;8.05;;
77332;SDS011;66408;51.326;12.070;2023-06-22T07:58:47;10.23;;;7.07;;
77332;SDS011;66408;51.326;12.070;2023-06-22T08:01:14;10.77;;;7.15;;
77332;SDS011;66408;51.326;12.070;2023-06-22T08:03:41;10.57;;;8.18;;
77332;SDS011;66408;51.326;12.070;2023-06-22T08:06:07;10.52;;;8.15;;
77332;SDS011;66408;51.326;12.070;2023-06-22T08:08:35;10.63;;;8.05;;
77332;SDS011;66408;51.326;12.070;2023-06-22T08:11:02;10.25;;;8.18;;
77332;SDS011;66408;51.326;12.070;2023-06-22T08:13:29;9.60;;;8.23;;
77332;SDS011;66408;51.326;12.070;2023-06-22T08:15:56;11.70;;;8.23;;
77332;SDS011;66408;51.326;12.070;2023-06-22T08:18:22;10.55;;;8.13;;
77332;SDS011;66408;51.326;12.070;2023-06-22T08:20:49;9.35;;;7.72;;
77332;SDS011;66408;51.326;12.070;2023-06-22T08:23:16;9.15;;;7.75;;
77332;SDS011;66408;51.326;12.070;2023-06-22T08:25:43;10.45;;;8.00;;
77332;SDS011;66408;51.326;12.070;2023-06-22T08:28:09;9.13;;;7.60;;
77332;SDS011;66408;51.326;12.070;2023-06-22T08:30:36;9.57;;;7.57;;
77332;SDS011;66408;51.326;12.070;2023-06-22T08:33:02;9.63;;;7.65;;
77332;SDS011;66408;51.326;12.070;2023-06-22T08:35:29;9.90;;;8.23;;
77332;SDS011;66408;51.326;12.070;2023-06-22T08:37:56;9.63;;;8.10;;
77332;SDS011;66408;51.326;12.070;2023-06-22T08:40:24;8.73;;;7.57;;
77332;SDS011;66408;51.326;12.070;2023-06-22T08:42:50;9.30;;;7.47;;
77332;SDS011;66408;51.326;12.070;2023-06-22T08:45:17;9.02;;;7.75;;
77332;SDS011;66408;51.326;12.070;2023-06-22T08:47:44;9.68;;;7.80;;
77332;SDS011;66408;51.326;12.070;2023-06-22T08:50:11;12.73;;;8.38;;
77332;SDS011;66408;51.326;12.070;2023-06-22T08:52:38;9.23;;;7.70;;
77332;SDS011;66408;51.326;12.070;2023-06-22T08:55:08;9.60;;;7.85;;
77332;SDS011;66408;51.326;12.070;2023-06-22T08:57:35;9.43;;;8.10;;
77332;SDS011;66408;51.326;12.070;2023-06-22T09:00:08;8.40;;;7.57;;
77332;SDS011;66408;51.326;12.070;2023-06-22T09:02:42;8.98;;;7.95;;
77332;SDS011;66408;51.326;12.070;2023-06-22T09:05:09;8.32;;;7.53;;
77332;SDS011;66408;51.326;12.070;2023-06-22T09:07:36;7.72;;;6.85;;
77332;SDS011;66408;51.326;12.070;2023-06-22T09:10:03;8.77;;;7.90;;
77332;SDS011;66408;51.326;12.070;2023-06-22T09:12:33;9.13;;;7.45;;
77332;SDS011;66408;51.326;12.070;2023-06-22T09:15:00;8.52;;;7.68;;
77332;SDS011;66408;51.326;12.070;2023-06-22T09:17:27;9.57;;;7.68;;
77332;SDS011;66408;51.326;12.070;2023-06-22T09:19:54;8.68;;;7.82;;
77332;SDS011;66408;51.326;12.070;2023-06-22T09:22:20;10.20;;;6.97;;
77332;SDS011;66408;51.326;12.070;2023-06-22T09:24:47;7.88;;;7.07;;
77332;SDS011;66408;51.326;12.070;2023-06-22T09:27:13;8.50;;;7.30;;
77332;SDS011;66408;51.326;12.070;2023-06-22T09:29:40;7.57;;;6.78;;
77332;SDS011;66408;51.326;12.070;2023-06-22T09:32:06;7.85;;;6.90;;
77332;SDS011;66408;51.326;12.070;2023-06-22T09:34:33;9.40;;;7.72;;
77332;SDS011;66408;51.326;12.070;2023-06-22T09:37:00;8.07;;;7.25;;
77332;SDS011;66408;51.326;12.070;2023-06-22T09:39:29;8.80;;;6.63;;
77332;SDS011;66408;51.326;12.070;2023-06-22T09:41:57;7.07;;;6.30;;
77332;SDS011;66408;51.326;12.070;2023-06-22T09:44:25;7.32;;;6.10;;
77332;SDS011;66408;51.326;12.070;2023-06-22T09:46:52;9.60;;;7.10;;
77332;SDS011;66408;51.326;12.070;2023-06-22T09:49:19;9.00;;;6.65;;
77332;SDS011;66408;51.326;12.070;2023-06-22T09:54:32;7.85;;;5.95;;
77332;SDS011;66408;51.326;12.070;2023-06-22T09:56:58;8.15;;;6.45;;
77332;SDS011;66408;51.326;12.070;2023-06-22T09:59:32;7.75;;;6.57;;
77332;SDS011;66408;51.326;12.070;2023-06-22T10:02:41;6.78;;;5.68;;
77332;SDS011;66408;51.326;12.070;2023-06-22T10:05:08;8.40;;;6.40;;
77332;SDS011;66408;51.326;12.070;2023-06-22T10:07:35;7.07;;;6.30;;
77332;SDS011;66408;51.326;12.070;2023-06-22T10:10:06;7.50;;;5.72;;
77332;SDS011;66408;51.326;12.070;2023-06-22T10:12:33;6.85;;;6.07;;
77332;SDS011;66408;51.326;12.070;2023-06-22T10:15:00;8.13;;;6.40;;
77332;SDS011;66408;51.326;12.070;2023-06-22T10:17:27;8.32;;;6.90;;
77332;SDS011;66408;51.326;12.070;2023-06-22T10:19:53;7.05;;;6.35;;
77332;SDS011;66408;51.326;12.070;2023-06-22T10:22:20;6.80;;;6.20;;
77332;SDS011;66408;51.326;12.070;2023-06-22T10:24:46;8.85;;;6.45;;
77332;SDS011;66408;51.326;12.070;2023-06-22T10:27:13;7.15;;;6.43;;
77332;SDS011;66408;51.326;12.070;2023-06-22T10:29:40;6.85;;;6.15;;
77332;SDS011;66408;51.326;12.070;2023-06-22T10:32:07;6.95;;;6.25;;
77332;SDS011;66408;51.326;12.070;2023-06-22T10:34:34;7.55;;;5.85;;
77332;SDS011;66408;51.326;12.070;2023-06-22T10:37:01;6.32;;;5.72;;
77332;SDS011;66408;51.326;12.070;2023-06-22T10:39:27;7.18;;;6.35;;
77332;SDS011;66408;51.326;12.070;2023-06-22T10:41:54;6.72;;;6.13;;
77332;SDS011;66408;51.326;12.070;2023-06-22T10:44:22;7.65;;;6.00;;
77332;SDS011;66408;51.326;12.070;2023-06-22T10:46:48;6.82;;;6.13;;
77332;SDS011;66408;51.326;12.070;2023-06-22T10:49:15;7.55;;;6.32;;
77332;SDS011;66408;51.326;12.070;2023-06-22T10:51:41;6.60;;;5.90;;
77332;SDS011;66408;51.326;12.070;2023-06-22T10:54:08;7.78;;;6.22;;
77332;SDS011;66408;51.326;12.070;2023-06-22T10:56:34;8.73;;;6.78;;
77332;SDS011;66408;51.326;12.070;2023-06-22T10:59:01;7.15;;;6.45;;
77332;SDS011;66408;51.326;12.070;2023-06-22T11:01:28;7.20;;;5.95;;
77332;SDS011;66408;51.326;12.070;2023-06-22T11:04:02;7.43;;;6.35;;
77332;SDS011;66408;51.326;12.070;2023-06-22T11:06:29;6.63;;;5.97;;
77332;SDS011;66408;51.326;12.070;2023-06-22T11:08:56;6.80;;;6.13;;
77332;SDS011;66408;51.326;12.070;2023-06-22T11:11:31;6.75;;;5.50;;
77332;SDS011;66408;51.326;12.070;2023-06-22T11:13:58;6.57;;;5.90;;
77332;SDS011;66408;51.326;12.070;2023-06-22T11:16:25;6.72;;;5.93;;
77332;SDS011;66408;51.326;12.070;2023-06-22T11:18:51;7.97;;;6.10;;
77332;SDS011;66408;51.326;12.070;2023-06-22T11:21:18;8.38;;;6.70;;
77332;SDS011;66408;51.326;12.070;2023-06-22T11:23:45;6.97;;;6.28;;
77332;SDS011;66408;51.326;12.070;2023-06-22T11:26:11;7.03;;;5.97;;
77332;SDS011;66408;51.326;12.070;2023-06-22T11:28:38;6.95;;;6.30;;
77332;SDS011;66408;51.326;12.070;2023-06-22T11:31:04;7.22;;;6.53;;
77332;SDS011;66408;51.326;12.070;2023-06-22T11:33:51;8.38;;;6.90;;
77332;SDS011;66408;51.326;12.070;2023-06-22T11:36:18;8.15;;;6.72;;
77332;SDS011;66408;51.326;12.070;2023-06-22T11:38:45;9.75;;;7.40;;
77332;SDS011;66408;51.326;12.070;2023-06-22T11:41:11;8.02;;;7.22;;
77332;SDS011;66408;51.326;12.070;2023-06-22T11:43:38;6.47;;;5.88;;
77332;SDS011;66408;51.326;12.070;2023-06-22T11:46:04;7.35;;;6.65;;
77332;SDS011;66408;51.326;12.070;2023-06-22T11:48:31;7.47;;;6.68;;
77332;SDS011;66408;51.326;12.070;2023-06-22T11:51:00;10.73;;;7.47;;
77332;SDS011;66408;51.326;12.070;2023-06-22T11:53:29;8.48;;;7.65;;
77332;SDS011;66408;51.326;12.070;2023-06-22T11:55:55;8.82;;;7.13;;
77332;SDS011;66408;51.326;12.070;2023-06-22T11:58:22;8.10;;;7.40;;
77332;SDS011;66408;51.326;12.070;2023-06-22T12:00:49;8.90;;;7.60;;
77332;SDS011;66408;51.326;12.070;2023-06-22T12:03:18;8.70;;;7.80;;
77332;SDS011;66408;51.326;12.070;2023-06-22T12:08:12;8.82;;;7.88;;
77332;SDS011;66408;51.326;12.070;2023-06-22T12:10:40;9.40;;;7.90;;
77332;SDS011;66408;51.326;12.070;2023-06-22T12:13:06;8.45;;;7.65;;
77332;SDS011;66408;51.326;12.070;2023-06-22T12:15:33;8.02;;;6.80;;
77332;SDS011;66408;51.326;12.070;2023-06-22T12:17:59;9.75;;;8.75;;
77332;SDS011;66408;51.326;12.070;2023-06-22T12:20:27;8.60;;;7.80;;
77332;SDS011;66408;51.326;12.070;2023-06-22T12:22:54;8.57;;;7.78;;
77332;SDS011;66408;51.326;12.070;2023-06-22T12:25:22;8.00;;;6.88;;
77332;SDS011;66408;51.326;12.070;2023-06-22T12:27:49;8.30;;;7.50;;
77332;SDS011;66408;51.326;12.070;2023-06-22T12:30:15;8.60;;;7.80;;
77332;SDS011;66408;51.326;12.070;2023-06-22T12:32:43;7.53;;;6.80;;
77332;SDS011;66408;51.326;12.070;2023-06-22T12:35:09;8.63;;;7.72;;
77332;SDS011;66408;51.326;12.070;2023-06-22T12:37:40;8.75;;;7.88;;
77332;SDS011;66408;51.326;12.070;2023-06-22T12:40:09;9.25;;;7.38;;
77332;SDS011;66408;51.326;12.070;2023-06-22T12:42:36;8.55;;;7.75;;
77332;SDS011;66408;51.326;12.070;2023-06-22T12:45:03;7.72;;;6.97;;
77332;SDS011;66408;51.326;12.070;2023-06-22T12:47:30;9.52;;;7.80;;
77332;SDS011;66408;51.326;12.070;2023-06-22T12:49:57;9.02;;;7.80;;
77332;SDS011;66408;51.326;12.070;2023-06-22T12:52:23;7.68;;;6.97;;
77332;SDS011;66408;51.326;12.070;2023-06-22T12:54:50;8.57;;;7.32;;
77332;SDS011;66408;51.326;12.070;2023-06-22T12:57:21;8.63;;;7.18;;
77332;SDS011;66408;51.326;12.070;2023-06-22T12:59:48;9.35;;;7.15;;
77332;SDS011;66408;51.326;12.070;2023-06-22T13:02:15;8.02;;;7.22;;
77332;SDS011;66408;51.326;12.070;2023-06-22T13:04:42;8.25;;;7.45;;
77332;SDS011;66408;51.326;12.070;2023-06-22T13:07:09;8.35;;;7.38;;
77332;SDS011;66408;51.326;12.070;2023-06-22T13:09:48;8.45;;;7.55;;
77332;SDS011;66408;51.326;12.070;2023-06-22T13:12:19;8.10;;;7.30;;
77332;SDS011;66408;51.326;12.070;2023-06-22T13:14:47;9.02;;;8.13;;
77332;SDS011;66408;51.326;12.070;2023-06-22T13:17:14;8.40;;;7.60;;
77332;SDS011;66408;51.326;12.070;2023-06-22T13:19:41;7.72;;;6.97;;
77332;SDS011;66408;51.326;12.070;2023-06-22T13:25:08;7.82;;;6.78;;
77332;SDS011;66408;51.326;12.070;2023-06-22T13:27:39;8.13;;;6.68;;
77332;SDS011;66408;51.326;12.070;2023-06-22T13:32:36;8.80;;;7.35;;
77332;SDS011;66408;51.326;12.070;2023-06-22T13:35:03;8.20;;;7.43;;
77332;SDS011;66408;51.326;12.070;2023-06-22T13:37:29;9.68;;;7.53;;
77332;SDS011;66408;51.326;12.070;2023-06-22T13:39:56;7.47;;;6.82;;
77332;SDS011;66408;51.326;12.070;2023-06-22T13:42:25;8.68;;;7.75;;
77332;SDS011;66408;51.326;12.070;2023-06-22T13:44:52;7.97;;;7.18;;
77332;SDS011;66408;51.326;12.070;2023-06-22T13:47:18;8.30;;;7.45;;
77332;SDS011;66408;51.326;12.070;2023-06-22T13:49:45;8.00;;;7.22;;
77332;SDS011;66408;51.326;12.070;2023-06-22T13:52:11;7.90;;;7.10;;
77332;SDS011;66408;51.326;12.070;2023-06-22T13:54:39;8.15;;;7.35;;
77332;SDS011;66408;51.326;12.070;2023-06-22T13:57:05;8.90;;;8.00;;
77332;SDS011;66408;51.326;12.070;2023-06-22T13:59:32;7.80;;;7.00;;
77332;SDS011;66408;51.326;12.070;2023-06-22T14:01:59;7.63;;;6.90;;
77332;SDS011;66408;51.326;12.070;2023-06-22T14:04:25;7.72;;;7.03;;
77332;SDS011;66408;51.326;12.070;2023-06-22T14:06:52;8.52;;;7.70;;
77332;SDS011;66408;51.326;12.070;2023-06-22T14:09:22;9.13;;;7.93;;
77332;SDS011;66408;51.326;12.070;2023-06-22T14:11:49;9.82;;;7.95;;
77332;SDS011;66408;51.326;12.070;2023-06-22T14:14:15;7.80;;;7.00;;
77332;SDS011;66408;51.326;12.070;2023-06-22T14:16:42;8.88;;;7.72;;
77332;SDS011;66408;51.326;12.070;2023-06-22T14:19:08;8.40;;;7.60;;
77332;SDS011;66408;51.326;12.070;2023-06-22T14:21:35;9.38;;;7.50;;
77332;SDS011;66408;51.326;12.070;2023-06-22T14:24:01;8.93;;;8.02;;
77332;SDS011;66408;51.326;12.070;2023-06-22T14:26:28;8.57;;;7.78;;
77332;SDS011;66408;51.326;12.070;2023-06-22T14:28:54;10.80;;;7.78;;
77332;SDS011;66408;51.326;12.070;2023-06-22T14:31:22;7.93;;;7.15;;
77332;SDS011;66408;51.326;12.070;2023-06-22T14:33:49;8.63;;;7.72;;
77332;SDS011;66408;51.326;12.070;2023-06-22T14:36:16;9.45;;;7.28;;
77332;SDS011;66408;51.326;12.070;2023-06-22T14:38:44;8.05;;;7.25;;
77332;SDS011;66408;51.326;12.070;2023-06-22T14:41:14;8.65;;;7.70;;
77332;SDS011;66408;51.326;12.070;2023-06-22T14:43:47;9.02;;;8.13;;
77332;SDS011;66408;51.326;12.070;2023-06-22T14:46:14;8.75;;;7.55;;
77332;SDS011;66408;51.326;12.070;2023-06-22T14:48:42;9.50;;;8.55;;
77332;SDS011;66408;51.326;12.070;2023-06-22T14:51:08;9.05;;;7.57;;
77332;SDS011;66408;51.326;12.070;2023-06-22T14:53:38;9.32;;;8.30;;
77332;SDS011;66408;51.326;12.070;2023-06-22T14:56:05;8.18;;;7.35;;